Time;durP1;ratioP1;P1;durP2;ratioP2;P2;SDS_P1;SDS_P2;PMS_P1;PMS_P2;Temp;Humidity;BMP_temperature;BMP_pressure;BME280_temperature;BME280_humidity;BME280_pressure;Samples;Min_cycle;Max_cycle;Signal;HPM_P1;HPM_P2
2021/07/10 08:27:17;;;;;;;3.45;2.10;;;;;;;;;;5024399;28;20406;-43
2021/07/10 08:29:43;;;;;;;3.50;2.08;;;;;;;;;;5004360;28;20049;-44
2021/07/10 08:32:08;;;;;;;4.45;2.22;;;;;;;;;;5001333;28;20037;-43
2021/07/10 08:34:34;;;;;;;3.80;2.47;;;;;;;;;;5013901;28;20030;-43
2021/07/10 08:37:01;;;;;;;4.30;2.75;;;;;;;;;;4997783;28;20780;-43
2021/07/10 08:39:27;;;;;;;4.50;2.55;;;;;;;;;;5000483;28;20513;-43
2021/07/10 08:41:52;;;;;;;3.92;2.70;;;;;;;;;;4996069;28;20033;-44
2021/07/10 08:44:18;;;;;;;3.72;2.55;;;;;;;;;;4998924;28;20041;-43
2021/07/10 08:46:45;;;;;;;3.45;2.45;;;;;;;;;;4981644;28;20046;-35
2021/07/10 08:49:15;;;;;;;3.80;2.40;;;;;;;;;;4980424;28;20699;-32
2021/07/10 08:51:45;;;;;;;4.95;2.70;;;;;;;;;;4977339;28;20054;-32
2021/07/10 08:54:11;;;;;;;5.35;2.33;;;;;;;;;;4982586;28;20037;-35
2021/07/10 08:56:36;;;;;;;3.13;2.33;;;;;;;;;;4980677;28;20382;-33
2021/07/10 08:59:02;;;;;;;5.57;2.63;;;;;;;;;;4981703;28;20034;-33
2021/07/10 09:01:27;;;;;;;4.60;2.78;;;;;;;;;;4986263;28;20062;-33
2021/07/10 09:03:53;;;;;;;4.25;2.55;;;;;;;;;;4979767;28;20516;-32
2021/07/10 09:06:18;;;;;;;3.65;2.35;;;;;;;;;;4981724;28;20418;-32
2021/07/10 09:08:51;;;;;;;5.90;2.95;;;;;;;;;;4976077;28;20490;-32
2021/07/10 09:11:17;;;;;;;3.83;2.70;;;;;;;;;;4976809;28;20728;-32
2021/07/10 09:13:42;;;;;;;4.95;2.65;;;;;;;;;;4982813;28;20030;-33
2021/07/10 09:16:15;;;;;;;5.45;2.60;;;;;;;;;;4999553;28;20030;-32
2021/07/10 09:18:49;;;;;;;4.70;2.72;;;;;;;;;;4989193;28;20053;-33
2021/07/10 09:21:33;;;;;;;5.10;3.03;;;;;;;;;;4982522;28;20032;-32
2021/07/10 09:23:59;;;;;;;5.07;2.75;;;;;;;;;;4996111;28;20030;-32
2021/07/10 09:26:26;;;;;;;3.72;2.72;;;;;;;;;;4999593;28;20061;-32
2021/07/10 09:29:19;;;;;;;4.50;2.75;;;;;;;;;;4998589;28;20026;-37
2021/07/10 09:31:56;;;;;;;3.40;2.35;;;;;;;;;;4997401;28;20500;-32
2021/07/10 09:34:28;;;;;;;3.55;2.65;;;;;;;;;;4999185;28;20037;-33
2021/07/10 09:37:01;;;;;;;4.97;2.72;;;;;;;;;;4997263;28;20096;-32
2021/07/10 09:39:29;;;;;;;4.22;2.50;;;;;;;;;;4976710;28;20126;-33
2021/07/10 09:41:57;;;;;;;3.97;2.65;;;;;;;;;;4973031;28;20504;-34
2021/07/10 09:44:23;;;;;;;4.78;2.75;;;;;;;;;;4979331;28;20034;-33
2021/07/10 09:46:49;;;;;;;3.65;2.60;;;;;;;;;;4977010;28;20018;-33
2021/07/10 09:49:18;;;;;;;4.57;3.30;;;;;;;;;;4987463;28;20030;-32
2021/07/10 09:51:44;;;;;;;4.03;2.63;;;;;;;;;;4981191;28;20109;-34
2021/07/10 09:54:11;;;;;;;5.25;2.90;;;;;;;;;;4987925;28;20026;-35
2021/07/10 09:56:57;;;;;;;3.78;2.40;;;;;;;;;;4982838;28;20022;-33
2021/07/10 09:59:24;;;;;;;3.35;2.33;;;;;;;;;;4981653;28;20116;-33
2021/07/10 10:01:51;;;;;;;3.22;2.47;;;;;;;;;;4987787;28;20029;-33
2021/07/10 10:04:28;;;;;;;4.90;2.83;;;;;;;;;;4987154;28;20084;-33
2021/07/10 10:06:55;;;;;;;4.90;3.00;;;;;;;;;;4987145;28;20539;-32
2021/07/10 10:09:25;;;;;;;3.72;2.58;;;;;;;;;;4980503;28;20035;-32
2021/07/10 10:11:57;;;;;;;4.10;2.65;;;;;;;;;;4979948;28;20121;-35
2021/07/10 10:14:24;;;;;;;4.32;2.63;;;;;;;;;;4984194;28;20050;-32
2021/07/10 10:16:50;;;;;;;4.07;2.50;;;;;;;;;;4980884;28;20034;-33
2021/07/10 10:19:18;;;;;;;3.65;2.50;;;;;;;;;;4984486;28;20090;-32
2021/07/10 10:21:46;;;;;;;3.78;2.80;;;;;;;;;;4978856;28;20030;-32
2021/07/10 10:24:13;;;;;;;4.07;2.50;;;;;;;;;;4981126;28;20501;-33
2021/07/10 10:26:39;;;;;;;4.20;2.97;;;;;;;;;;4986217;28;20034;-33
2021/07/10 10:29:06;;;;;;;4.65;2.60;;;;;;;;;;4973284;28;20101;-33
2021/07/10 10:31:32;;;;;;;4.00;2.60;;;;;;;;;;4986671;28;20379;-33
2021/07/10 10:33:58;;;;;;;3.63;2.78;;;;;;;;;;4982939;28;20113;-33
2021/07/10 10:36:24;;;;;;;3.38;2.40;;;;;;;;;;4967464;28;20057;-32
2021/07/10 10:38:50;;;;;;;4.03;2.53;;;;;;;;;;4966531;28;20255;-32
2021/07/10 10:41:18;;;;;;;3.88;2.80;;;;;;;;;;4980865;28;20030;-33
2021/07/10 10:43:47;;;;;;;3.88;3.00;;;;;;;;;;4986214;28;20026;-33
2021/07/10 10:46:14;;;;;;;4.35;2.90;;;;;;;;;;4986456;28;20033;-33
2021/07/10 10:48:42;;;;;;;3.67;2.72;;;;;;;;;;4984182;28;20080;-33
2021/07/10 10:51:45;;;;;;;3.70;2.63;;;;;;;;;;4982430;28;20035;-32
2021/07/10 10:54:16;;;;;;;5.80;2.80;;;;;;;;;;4929732;29;20032;-32
2021/07/10 10:56:43;;;;;;;4.35;3.08;;;;;;;;;;4926092;29;20447;-32
2021/07/10 10:59:27;;;;;;;4.63;2.72;;;;;;;;;;4959633;28;20105;-36
2021/07/10 11:01:53;;;;;;;3.65;2.63;;;;;;;;;;4980548;28;20023;-32
2021/07/10 11:04:43;;;;;;;4.10;2.72;;;;;;;;;;4979640;28;20027;-32
2021/07/10 11:07:27;;;;;;;4.20;2.60;;;;;;;;;;4973565;28;20026;-32
2021/07/10 11:10:02;;;;;;;4.10;2.45;;;;;;;;;;4967034;28;20679;-33
2021/07/10 11:12:46;;;;;;;4.20;2.65;;;;;;;;;;4985721;28;20030;-32
2021/07/10 11:15:27;;;;;;;4.50;2.70;;;;;;;;;;4985959;28;20082;-32
2021/07/10 11:17:53;;;;;;;3.47;2.50;;;;;;;;;;4965814;28;20450;-32
2021/07/10 11:20:43;;;;;;;3.97;2.83;;;;;;;;;;4980963;28;20065;-32
2021/07/10 11:23:10;;;;;;;4.57;3.00;;;;;;;;;;4972751;28;20048;-32
2021/07/10 11:25:51;;;;;;;3.60;2.67;;;;;;;;;;4985048;28;20121;-33
2021/07/10 11:28:26;;;;;;;6.03;2.95;;;;;;;;;;4982711;28;20045;-33
2021/07/10 11:30:54;;;;;;;3.47;2.60;;;;;;;;;;4969360;28;20022;-32
2021/07/10 11:33:57;;;;;;;4.25;2.83;;;;;;;;;;4980115;28;20054;-32
2021/07/10 11:36:34;;;;;;;4.35;2.70;;;;;;;;;;4985434;28;20571;-32
2021/07/10 11:39:00;;;;;;;4.40;3.08;;;;;;;;;;4963362;28;20027;-34
2021/07/10 11:41:30;;;;;;;3.92;2.72;;;;;;;;;;4979834;28;20444;-32
2021/07/10 11:44:12;;;;;;;3.97;2.65;;;;;;;;;;4985594;28;20026;-32
2021/07/10 11:46:56;;;;;;;4.10;3.08;;;;;;;;;;4984915;28;20714;-33
2021/07/10 11:49:36;;;;;;;3.88;2.45;;;;;;;;;;4972458;28;20042;-33
2021/07/10 11:52:04;;;;;;;4.03;2.97;;;;;;;;;;4962416;28;20058;-32
2021/07/10 11:54:30;;;;;;;4.18;2.80;;;;;;;;;;4980082;28;20264;-34
2021/07/10 11:56:55;;;;;;;4.25;2.88;;;;;;;;;;4983993;28;20081;-33
2021/07/10 11:59:22;;;;;;;4.78;2.90;;;;;;;;;;4979851;28;20755;-32
2021/07/10 12:01:47;;;;;;;3.90;2.70;;;;;;;;;;4985238;28;20468;-32
2021/07/10 12:04:13;;;;;;;4.00;2.95;;;;;;;;;;4974136;28;20030;-32
2021/07/10 12:06:38;;;;;;;3.50;2.50;;;;;;;;;;4974822;28;20045;-32
2021/07/10 12:09:03;;;;;;;3.63;2.58;;;;;;;;;;4968985;28;20027;-33
2021/07/10 12:11:30;;;;;;;3.78;2.70;;;;;;;;;;4972735;28;20105;-32
2021/07/10 12:14:06;;;;;;;3.40;2.25;;;;;;;;;;4971418;28;20062;-32
2021/07/10 12:16:32;;;;;;;4.15;2.95;;;;;;;;;;4981151;28;20010;-32
2021/07/10 12:18:58;;;;;;;3.15;2.40;;;;;;;;;;4981014;28;20030;-32
2021/07/10 12:21:23;;;;;;;4.28;2.40;;;;;;;;;;4973309;28;20394;-32
2021/07/10 12:23:51;;;;;;;4.28;2.72;;;;;;;;;;4965130;28;20677;-38
2021/07/10 12:26:19;;;;;;;3.63;2.50;;;;;;;;;;4983884;28;20421;-32
2021/07/10 12:28:52;;;;;;;3.42;2.47;;;;;;;;;;4981827;28;20088;-32
2021/07/10 12:31:22;;;;;;;3.55;2.80;;;;;;;;;;4984517;28;20045;-32
2021/07/10 12:33:51;;;;;;;4.72;2.85;;;;;;;;;;4970968;28;20035;-32
2021/07/10 12:36:23;;;;;;;3.53;2.72;;;;;;;;;;4985264;28;20104;-32
2021/07/10 12:38:50;;;;;;;4.28;2.78;;;;;;;;;;4973758;28;20026;-32
2021/07/10 12:41:23;;;;;;;3.65;2.53;;;;;;;;;;4984889;28;20516;-33
2021/07/10 12:43:49;;;;;;;3.88;2.80;;;;;;;;;;4984723;28;20124;-32
2021/07/10 12:46:15;;;;;;;4.13;2.83;;;;;;;;;;4974618;28;20065;-32
2021/07/10 12:48:40;;;;;;;3.97;3.00;;;;;;;;;;4974824;28;20417;-32
2021/07/10 12:51:06;;;;;;;3.70;2.60;;;;;;;;;;4974311;28;20027;-32
2021/07/10 12:53:32;;;;;;;3.95;3.08;;;;;;;;;;4980573;28;20026;-32
2021/07/10 12:56:12;;;;;;;3.60;2.60;;;;;;;;;;4980773;28;20026;-33
2021/07/10 12:58:39;;;;;;;4.82;3.20;;;;;;;;;;4983944;28;20667;-33
2021/07/10 13:01:05;;;;;;;3.72;2.53;;;;;;;;;;4984857;28;20037;-33
2021/07/10 13:03:30;;;;;;;3.90;2.80;;;;;;;;;;4979274;28;20023;-32
2021/07/10 13:06:00;;;;;;;3.67;2.72;;;;;;;;;;4977641;28;20023;-32
2021/07/10 13:08:25;;;;;;;3.60;2.80;;;;;;;;;;4974099;28;20031;-34
2021/07/10 13:11:00;;;;;;;4.30;3.00;;;;;;;;;;4978310;28;20110;-33
2021/07/10 13:13:27;;;;;;;3.70;2.60;;;;;;;;;;4956118;28;20512;-32
2021/07/10 13:15:55;;;;;;;4.15;3.10;;;;;;;;;;4974606;28;20489;-33
2021/07/10 13:18:23;;;;;;;3.63;2.47;;;;;;;;;;4971451;28;20367;-33
2021/07/10 13:20:57;;;;;;;4.47;2.72;;;;;;;;;;4969879;28;20050;-32
2021/07/10 13:23:39;;;;;;;4.43;2.90;;;;;;;;;;4970843;28;20070;-33
2021/07/10 13:26:08;;;;;;;;;;;;;;;;;;4970101;28;20153;-32
2021/07/10 13:28:38;;;;;;;3.85;2.63;;;;;;;;;;4973841;28;19972;-34
2021/07/10 13:31:25;;;;;;;3.65;2.50;;;;;;;;;;4987526;28;20038;-32
2021/07/10 13:33:59;;;;;;;4.03;2.58;;;;;;;;;;4974945;28;20056;-32
2021/07/10 13:36:26;;;;;;;3.80;2.90;;;;;;;;;;4976074;28;20050;-33
2021/07/10 13:39:13;;;;;;;4.45;3.15;;;;;;;;;;4974583;28;20082;-33
2021/07/10 13:41:47;;;;;;;3.83;2.83;;;;;;;;;;4987766;28;20026;-33
2021/07/10 13:44:16;;;;;;;3.83;2.70;;;;;;;;;;4985338;28;20031;-33
2021/07/10 13:46:55;;;;;;;3.75;2.78;;;;;;;;;;4976192;28;20713;-33
2021/07/10 13:49:36;;;;;;;3.65;2.53;;;;;;;;;;4962408;28;20038;-33
2021/07/10 13:52:19;;;;;;;4.25;2.75;;;;;;;;;;4975119;28;20494;-33
2021/07/10 13:54:50;;;;;;;4.97;3.10;;;;;;;;;;4987469;28;20034;-33
2021/07/10 13:57:30;;;;;;;3.53;2.70;;;;;;;;;;4987322;28;20024;-33
2021/07/10 14:00:11;;;;;;;4.15;2.78;;;;;;;;;;4978045;28;20085;-32
2021/07/10 14:02:55;;;;;;;4.10;3.10;;;;;;;;;;4977421;28;20493;-33
2021/07/10 14:05:28;;;;;;;3.95;2.95;;;;;;;;;;4974220;28;20057;-33
2021/07/10 14:08:05;;;;;;;4.28;3.15;;;;;;;;;;4981189;28;20038;-34
2021/07/10 14:10:32;;;;;;;3.70;2.88;;;;;;;;;;4969805;28;20034;-33
2021/07/10 14:13:00;;;;;;;3.97;2.88;;;;;;;;;;4981757;28;20041;-33
2021/07/10 14:15:26;;;;;;;4.28;3.35;;;;;;;;;;4985947;28;20018;-33
2021/07/10 14:17:53;;;;;;;3.90;2.95;;;;;;;;;;4971201;28;20033;-32
2021/07/10 14:20:20;;;;;;;3.88;2.72;;;;;;;;;;4987101;28;20040;-32
2021/07/10 14:22:46;;;;;;;3.33;2.78;;;;;;;;;;4981033;28;20113;-32
2021/07/10 14:25:15;;;;;;;4.25;3.20;;;;;;;;;;4986735;28;20084;-33
2021/07/10 14:27:41;;;;;;;3.67;2.72;;;;;;;;;;4986672;28;20433;-32
2021/07/10 14:30:09;;;;;;;4.05;3.00;;;;;;;;;;4966342;28;20031;-32
2021/07/10 14:32:34;;;;;;;3.92;2.90;;;;;;;;;;4983751;28;20105;-32
2021/07/10 14:35:00;;;;;;;4.22;2.95;;;;;;;;;;4973133;28;20110;-32
2021/07/10 14:37:25;;;;;;;3.75;2.85;;;;;;;;;;4981412;28;20088;-32
2021/07/10 14:39:51;;;;;;;4.30;3.00;;;;;;;;;;4977068;28;20472;-33
2021/07/10 14:42:17;;;;;;;3.70;2.78;;;;;;;;;;4986255;28;20466;-32
2021/07/10 14:44:44;;;;;;;4.05;3.00;;;;;;;;;;4986340;28;20505;-32
2021/07/10 14:47:10;;;;;;;4.15;2.72;;;;;;;;;;4986155;28;20123;-33
2021/07/10 14:49:36;;;;;;;4.43;3.05;;;;;;;;;;4987003;28;20026;-32
2021/07/10 14:52:01;;;;;;;4.25;2.92;;;;;;;;;;4976105;28;20515;-33
2021/07/10 14:54:26;;;;;;;4.43;3.00;;;;;;;;;;4986343;28;20084;-32
2021/07/10 14:56:51;;;;;;;3.83;2.90;;;;;;;;;;4986496;28;20026;-33
2021/07/10 14:59:17;;;;;;;3.92;2.72;;;;;;;;;;4986117;28;20674;-32
2021/07/10 15:01:42;;;;;;;4.60;3.13;;;;;;;;;;4984046;28;20465;-33
2021/07/10 15:04:07;;;;;;;3.65;2.70;;;;;;;;;;4966588;28;20037;-33
2021/07/10 15:06:33;;;;;;;4.20;3.00;;;;;;;;;;4973473;28;20023;-33
2021/07/10 15:08:58;;;;;;;3.63;2.78;;;;;;;;;;4966969;28;20031;-33
2021/07/10 15:11:24;;;;;;;4.43;3.15;;;;;;;;;;4975773;28;20023;-35
2021/07/10 15:13:49;;;;;;;4.00;2.83;;;;;;;;;;4986143;28;20510;-32
2021/07/10 15:16:14;;;;;;;4.50;2.90;;;;;;;;;;4984468;28;20080;-32
2021/07/10 15:18:40;;;;;;;4.10;2.88;;;;;;;;;;4974915;28;20027;-33
2021/07/10 15:21:05;;;;;;;3.83;2.90;;;;;;;;;;4970464;28;20101;-33
2021/07/10 15:23:30;;;;;;;3.90;2.83;;;;;;;;;;4975400;28;20030;-33
2021/07/10 15:25:56;;;;;;;3.90;2.78;;;;;;;;;;4985635;28;20065;-32
2021/07/10 15:28:21;;;;;;;4.05;2.88;;;;;;;;;;4984880;28;20073;-33
2021/07/10 15:30:47;;;;;;;4.00;3.03;;;;;;;;;;4983150;28;20041;-33
2021/07/10 15:33:12;;;;;;;4.18;2.90;;;;;;;;;;4966508;28;20041;-32
2021/07/10 15:35:38;;;;;;;3.85;2.70;;;;;;;;;;4980756;28;20027;-32
2021/07/10 15:38:05;;;;;;;4.00;2.90;;;;;;;;;;4978349;28;20038;-33
2021/07/10 15:40:31;;;;;;;3.70;2.83;;;;;;;;;;4979060;28;20193;-33
2021/07/10 15:42:57;;;;;;;4.07;2.95;;;;;;;;;;4974552;28;20030;-32
2021/07/10 15:45:22;;;;;;;3.92;2.72;;;;;;;;;;4984903;28;20065;-33
2021/07/10 15:47:48;;;;;;;3.70;2.78;;;;;;;;;;5000425;28;20105;-32
2021/07/10 15:50:17;;;;;;;4.13;3.05;;;;;;;;;;4983538;28;20026;-32
2021/07/10 15:52:43;;;;;;;4.03;3.00;;;;;;;;;;4974669;28;20608;-32
2021/07/10 15:55:12;;;;;;;4.25;2.75;;;;;;;;;;4985710;28;20030;-37
2021/07/10 15:57:38;;;;;;;3.88;2.75;;;;;;;;;;4974987;28;20022;-32
2021/07/10 16:00:10;;;;;;;3.90;3.03;;;;;;;;;;4980931;28;20036;-32
2021/07/10 16:02:35;;;;;;;3.97;2.92;;;;;;;;;;4985003;28;20027;-32
2021/07/10 16:05:00;;;;;;;3.90;2.95;;;;;;;;;;4975772;28;20034;-32
2021/07/10 16:07:26;;;;;;;4.18;2.80;;;;;;;;;;4982684;28;20030;-32
2021/07/10 16:09:51;;;;;;;4.18;3.17;;;;;;;;;;4974660;28;20034;-32
2021/07/10 16:12:16;;;;;;;4.15;2.88;;;;;;;;;;4985034;28;20113;-33
2021/07/10 16:14:41;;;;;;;4.20;3.20;;;;;;;;;;4971392;28;20105;-32
2021/07/10 16:17:07;;;;;;;3.90;2.95;;;;;;;;;;4977194;28;20741;-32
2021/07/10 16:19:32;;;;;;;4.82;3.30;;;;;;;;;;4981228;28;20034;-32
2021/07/10 16:21:57;;;;;;;4.20;3.13;;;;;;;;;;4975524;28;20054;-32
2021/07/10 16:24:23;;;;;;;4.18;3.03;;;;;;;;;;4981818;28;20445;-32
2021/07/10 16:26:53;;;;;;;3.55;2.50;;;;;;;;;;4979697;28;20022;-32
2021/07/10 16:29:19;;;;;;;4.20;3.17;;;;;;;;;;4968632;28;20526;-33
2021/07/10 16:31:44;;;;;;;4.03;2.90;;;;;;;;;;4974883;28;20101;-32
2021/07/10 16:34:10;;;;;;;4.13;2.90;;;;;;;;;;4981875;28;20030;-33
2021/07/10 16:36:35;;;;;;;3.83;2.95;;;;;;;;;;4984452;28;20021;-32
2021/07/10 16:39:00;;;;;;;4.45;3.20;;;;;;;;;;4974017;28;20379;-32
2021/07/10 16:41:26;;;;;;;3.92;2.72;;;;;;;;;;4985494;28;20026;-32
2021/07/10 16:43:51;;;;;;;4.18;2.65;;;;;;;;;;4981031;28;20061;-32
2021/07/10 16:46:17;;;;;;;4.53;3.03;;;;;;;;;;4975126;28;20077;-32
2021/07/10 16:48:42;;;;;;;3.75;2.72;;;;;;;;;;4987618;28;20089;-32
2021/07/10 16:51:07;;;;;;;3.83;2.75;;;;;;;;;;4983798;28;20114;-33
2021/07/10 16:53:34;;;;;;;3.90;2.97;;;;;;;;;;4985223;28;20150;-33
2021/07/10 16:55:59;;;;;;;3.95;2.78;;;;;;;;;;4989001;28;20771;-33
2021/07/10 16:58:25;;;;;;;4.13;2.85;;;;;;;;;;4973773;28;20027;-34
2021/07/10 17:00:50;;;;;;;3.97;3.10;;;;;;;;;;4979193;28;20049;-32
2021/07/10 17:03:16;;;;;;;4.10;3.00;;;;;;;;;;4974844;28;20106;-32
2021/07/10 17:05:42;;;;;;;3.80;3.00;;;;;;;;;;4970228;28;20033;-32
2021/07/10 17:08:12;;;;;;;4.30;2.90;;;;;;;;;;4970357;28;20035;-32
2021/07/10 17:10:38;;;;;;;3.83;2.60;;;;;;;;;;4971106;28;20554;-33
2021/07/10 17:13:03;;;;;;;3.95;2.97;;;;;;;;;;4972454;28;20366;-32
2021/07/10 17:15:29;;;;;;;3.75;2.85;;;;;;;;;;4978742;28;20036;-32
2021/07/10 17:17:54;;;;;;;4.32;2.90;;;;;;;;;;4981769;28;20430;-33
2021/07/10 17:20:23;;;;;;;3.80;2.90;;;;;;;;;;4986047;28;20026;-32
2021/07/10 17:22:49;;;;;;;4.30;3.08;;;;;;;;;;4987363;28;20034;-33
2021/07/10 17:25:14;;;;;;;3.65;2.67;;;;;;;;;;4983593;28;20110;-33
2021/07/10 17:27:42;;;;;;;3.97;2.90;;;;;;;;;;4978488;28;20104;-33
2021/07/10 17:30:09;;;;;;;3.90;2.97;;;;;;;;;;4984704;28;20092;-32
2021/07/10 17:32:38;;;;;;;4.32;3.10;;;;;;;;;;4987839;28;20034;-32
2021/07/10 17:35:05;;;;;;;3.80;2.72;;;;;;;;;;4987531;28;20029;-32
2021/07/10 17:37:30;;;;;;;4.03;3.00;;;;;;;;;;4976396;28;20025;-33
2021/07/10 17:39:56;;;;;;;4.20;3.03;;;;;;;;;;4970627;28;20453;-32
2021/07/10 17:42:21;;;;;;;3.70;2.53;;;;;;;;;;4970436;28;20089;-33
2021/07/10 17:44:47;;;;;;;4.07;3.05;;;;;;;;;;4970925;28;20023;-34
2021/07/10 17:47:13;;;;;;;4.22;3.00;;;;;;;;;;4969524;28;20080;-33
2021/07/10 17:49:38;;;;;;;4.05;2.90;;;;;;;;;;4981872;28;20042;-33
2021/07/10 17:52:04;;;;;;;3.78;2.72;;;;;;;;;;4981320;28;20060;-33
2021/07/10 17:54:29;;;;;;;4.03;2.88;;;;;;;;;;4987482;28;20113;-36
2021/07/10 17:56:54;;;;;;;4.03;2.80;;;;;;;;;;4979562;28;20029;-32
2021/07/10 17:59:20;;;;;;;5.38;3.10;;;;;;;;;;4980448;28;20030;-33
2021/07/10 18:01:46;;;;;;;4.43;3.13;;;;;;;;;;4973988;28;20026;-33
2021/07/10 18:04:11;;;;;;;4.00;2.97;;;;;;;;;;4973500;28;20034;-33
2021/07/10 18:06:37;;;;;;;4.57;2.63;;;;;;;;;;4986105;28;20022;-34
2021/07/10 18:09:04;;;;;;;4.65;2.63;;;;;;;;;;4984615;28;20037;-33
2021/07/10 18:11:30;;;;;;;4.13;2.95;;;;;;;;;;4986725;28;20498;-32
2021/07/10 18:13:55;;;;;;;4.88;2.50;;;;;;;;;;4987538;28;20041;-33
2021/07/10 18:16:21;;;;;;;4.25;2.67;;;;;;;;;;4976989;28;20073;-35
2021/07/10 18:18:49;;;;;;;5.65;2.47;;;;;;;;;;4967065;28;20065;-35
2021/07/10 18:21:14;;;;;;;4.55;2.40;;;;;;;;;;4970960;28;20027;-34
2021/07/10 18:23:39;;;;;;;7.70;2.55;;;;;;;;;;4971068;28;20034;-34
2021/07/10 18:26:05;;;;;;;6.60;2.47;;;;;;;;;;4975671;28;20509;-33
2021/07/10 18:28:31;;;;;;;5.63;2.50;;;;;;;;;;4974429;28;20019;-34
2021/07/10 18:30:57;;;;;;;7.60;2.70;;;;;;;;;;4975136;28;20023;-33
2021/07/10 18:33:23;;;;;;;5.88;2.63;;;;;;;;;;4966632;28;20037;-33
2021/07/10 18:35:48;;;;;;;3.92;2.42;;;;;;;;;;4974155;28;20073;-33
2021/07/10 18:38:14;;;;;;;7.15;2.75;;;;;;;;;;4982487;28;20089;-33
2021/07/10 18:40:40;;;;;;;5.45;2.33;;;;;;;;;;4978111;28;20457;-33
2021/07/10 18:43:06;;;;;;;4.95;2.42;;;;;;;;;;4970019;28;20512;-33
2021/07/10 18:45:32;;;;;;;5.90;2.45;;;;;;;;;;4972140;28;20057;-34
2021/07/10 18:47:58;;;;;;;3.70;2.40;;;;;;;;;;4973117;28;20027;-36
2021/07/10 18:50:24;;;;;;;5.68;2.38;;;;;;;;;;4967368;28;20096;-35
2021/07/10 18:52:51;;;;;;;5.07;2.67;;;;;;;;;;4963900;28;20548;-34
2021/07/10 18:55:18;;;;;;;3.60;2.40;;;;;;;;;;4964869;28;20422;-34
2021/07/10 18:57:45;;;;;;;5.25;2.58;;;;;;;;;;4966405;28;20130;-34
2021/07/10 19:00:14;;;;;;;3.40;2.30;;;;;;;;;;4969522;28;20093;-36
2021/07/10 19:02:40;;;;;;;4.50;2.50;;;;;;;;;;4980385;28;20068;-33
2021/07/10 19:05:06;;;;;;;3.95;2.50;;;;;;;;;;4974163;28;20633;-33
2021/07/10 19:07:31;;;;;;;3.83;2.42;;;;;;;;;;4972310;28;20077;-33
2021/07/10 19:09:56;;;;;;;3.78;2.30;;;;;;;;;;4976099;28;20486;-33
2021/07/10 19:12:24;;;;;;;3.80;2.45;;;;;;;;;;4970513;28;20130;-33
2021/07/10 19:14:51;;;;;;;5.57;2.85;;;;;;;;;;4985729;28;20027;-34
2021/07/10 19:17:16;;;;;;;3.40;2.10;;;;;;;;;;4974065;28;20499;-36
2021/07/10 19:19:41;;;;;;;7.13;2.20;;;;;;;;;;4968165;28;20491;-34
2021/07/10 19:22:07;;;;;;;4.35;2.55;;;;;;;;;;4964977;28;20023;-34
2021/07/10 19:24:32;;;;;;;5.68;2.42;;;;;;;;;;4965854;28;20034;-41
2021/07/10 19:26:58;;;;;;;6.57;2.40;;;;;;;;;;4994158;28;20485;-33
2021/07/10 19:29:23;;;;;;;5.18;2.80;;;;;;;;;;4985831;28;20513;-33
2021/07/10 19:31:48;;;;;;;5.40;2.40;;;;;;;;;;4977942;28;20037;-33
2021/07/10 19:34:14;;;;;;;3.67;2.55;;;;;;;;;;4964260;28;20030;-34
2021/07/10 19:36:39;;;;;;;6.60;2.45;;;;;;;;;;4965785;28;20046;-34
2021/07/10 19:39:06;;;;;;;5.93;2.67;;;;;;;;;;4966645;28;20034;-34
2021/07/10 19:41:33;;;;;;;4.50;2.75;;;;;;;;;;4968315;28;20027;-36
2021/07/10 19:43:59;;;;;;;5.05;2.70;;;;;;;;;;4967270;28;20036;-36
2021/07/10 19:46:25;;;;;;;6.03;2.53;;;;;;;;;;4983332;28;20478;-33
2021/07/10 19:48:50;;;;;;;5.28;2.80;;;;;;;;;;4967238;28;20478;-33
2021/07/10 19:51:15;;;;;;;3.88;2.63;;;;;;;;;;4968048;28;20057;-36
2021/07/10 19:53:44;;;;;;;4.72;2.70;;;;;;;;;;4967616;28;20208;-33
2021/07/10 19:56:10;;;;;;;5.75;2.90;;;;;;;;;;4967568;28;20019;-34
2021/07/10 19:58:35;;;;;;;4.88;2.50;;;;;;;;;;4966211;28;20026;-33
2021/07/10 20:01:03;;;;;;;5.47;3.20;;;;;;;;;;4967655;28;20478;-34
2021/07/10 20:03:28;;;;;;;4.25;2.55;;;;;;;;;;4967311;28;20030;-33
2021/07/10 20:05:54;;;;;;;22.80;4.80;;;;;;;;;;4967840;28;20019;-33
2021/07/10 20:08:19;;;;;;;4.22;2.50;;;;;;;;;;4966341;28;20506;-33
2021/07/10 20:10:46;;;;;;;4.05;2.65;;;;;;;;;;4967989;28;20512;-32
2021/07/10 20:13:12;;;;;;;4.60;2.50;;;;;;;;;;4967773;28;20246;-33
2021/07/10 20:15:39;;;;;;;4.13;2.70;;;;;;;;;;4967625;28;20033;-33
2021/07/10 20:18:08;;;;;;;5.40;2.75;;;;;;;;;;4962959;28;20081;-33
2021/07/10 20:20:34;;;;;;;4.78;2.50;;;;;;;;;;4972508;28;20110;-33
2021/07/10 20:22:59;;;;;;;5.15;3.15;;;;;;;;;;4966899;28;20459;-33
2021/07/10 20:25:25;;;;;;;5.93;2.90;;;;;;;;;;4967271;28;20031;-33
2021/07/10 20:27:51;;;;;;;5.90;3.10;;;;;;;;;;4967279;28;20058;-32
2021/07/10 20:30:17;;;;;;;4.43;2.65;;;;;;;;;;4967588;28;20061;-32
2021/07/10 20:32:43;;;;;;;4.93;2.80;;;;;;;;;;4967324;28;20082;-33
2021/07/10 20:35:10;;;;;;;5.55;3.85;;;;;;;;;;4967922;28;20037;-33
2021/07/10 20:37:35;;;;;;;5.30;4.15;;;;;;;;;;4967036;28;20505;-32
2021/07/10 20:40:01;;;;;;;6.10;3.65;;;;;;;;;;4967553;28;20026;-33
2021/07/10 20:42:26;;;;;;;5.70;3.53;;;;;;;;;;4967534;28;20048;-32
2021/07/10 20:44:52;;;;;;;4.95;3.60;;;;;;;;;;4967271;28;20054;-33
2021/07/10 20:47:18;;;;;;;4.82;3.33;;;;;;;;;;4966494;28;20379;-33
2021/07/10 20:49:46;;;;;;;6.70;3.92;;;;;;;;;;4966595;28;20026;-33
2021/07/10 20:52:14;;;;;;;4.75;2.78;;;;;;;;;;4967712;28;20026;-32
2021/07/10 20:54:40;;;;;;;6.93;3.50;;;;;;;;;;4967294;28;20030;-32
2021/07/10 20:57:06;;;;;;;4.22;2.85;;;;;;;;;;4965871;28;20421;-34
2021/07/10 20:59:31;;;;;;;5.05;2.78;;;;;;;;;;4967342;28;20541;-32
2021/07/10 21:01:56;;;;;;;4.30;2.47;;;;;;;;;;4967451;28;20022;-33
2021/07/10 21:04:22;;;;;;;5.38;2.40;;;;;;;;;;4966874;28;20098;-32
2021/07/10 21:06:47;;;;;;;5.15;2.10;;;;;;;;;;4966555;28;20025;-32
2021/07/10 21:09:15;;;;;;;3.45;2.17;;;;;;;;;;4966745;28;20030;-32
2021/07/10 21:11:49;;;;;;;3.22;1.80;;;;;;;;;;4966499;28;20015;-33
2021/07/10 21:14:15;;;;;;;2.83;1.80;;;;;;;;;;4966686;28;20070;-32
2021/07/10 21:16:42;;;;;;;3.80;1.52;;;;;;;;;;4966195;28;20521;-32
2021/07/10 21:19:09;;;;;;;3.83;1.60;;;;;;;;;;4972125;28;20014;-37
2021/07/10 21:21:35;;;;;;;4.35;1.92;;;;;;;;;;4977468;28;20033;-33
2021/07/10 21:24:01;;;;;;;3.33;1.67;;;;;;;;;;4963030;28;20529;-33
2021/07/10 21:26:27;;;;;;;2.90;1.70;;;;;;;;;;4963866;28;20037;-33
2021/07/10 21:28:56;;;;;;;2.20;1.48;;;;;;;;;;4967033;28;20027;-33
2021/07/10 21:31:22;;;;;;;3.65;1.60;;;;;;;;;;4966042;28;20030;-32
2021/07/10 21:33:47;;;;;;;4.03;2.03;;;;;;;;;;4968626;28;20513;-34
2021/07/10 21:36:12;;;;;;;4.03;2.03;;;;;;;;;;4970463;28;20562;-34
2021/07/10 21:38:38;;;;;;;3.00;1.55;;;;;;;;;;4969433;28;20465;-34
2021/07/10 21:41:04;;;;;;;3.90;1.95;;;;;;;;;;4970342;28;20029;-33
2021/07/10 21:43:29;;;;;;;3.67;1.60;;;;;;;;;;4970288;28;20038;-33
2021/07/10 21:45:54;;;;;;;2.95;1.60;;;;;;;;;;4970290;28;20410;-33
2021/07/10 21:48:20;;;;;;;3.75;1.50;;;;;;;;;;4969519;28;20034;-33
2021/07/10 21:50:46;;;;;;;3.38;1.45;;;;;;;;;;4977036;28;20483;-33
2021/07/10 21:53:12;;;;;;;5.03;1.30;;;;;;;;;;4969670;28;20027;-33
2021/07/10 21:55:37;;;;;;;2.38;1.40;;;;;;;;;;4969503;28;20033;-33
2021/07/10 21:58:03;;;;;;;3.00;1.45;;;;;;;;;;4969846;28;20027;-33
2021/07/10 22:00:29;;;;;;;2.95;1.67;;;;;;;;;;4969860;28;20034;-33
2021/07/10 22:02:56;;;;;;;3.15;1.27;;;;;;;;;;4969656;28;20026;-33
2021/07/10 22:05:23;;;;;;;3.20;1.23;;;;;;;;;;4970212;28;20026;-33
2021/07/10 22:07:49;;;;;;;3.05;1.48;;;;;;;;;;4969136;28;20371;-33
2021/07/10 22:10:15;;;;;;;2.95;1.40;;;;;;;;;;4969578;28;20035;-33
2021/07/10 22:12:40;;;;;;;2.58;1.30;;;;;;;;;;4969175;28;20423;-33
2021/07/10 22:15:07;;;;;;;4.43;1.30;;;;;;;;;;4970167;28;20033;-33
2021/07/10 22:17:32;;;;;;;3.25;1.50;;;;;;;;;;4968539;28;20150;-33
2021/07/10 22:19:58;;;;;;;2.88;1.50;;;;;;;;;;4969417;28;20027;-33
2021/07/10 22:22:24;;;;;;;3.03;1.50;;;;;;;;;;4985386;28;20052;-33
2021/07/10 22:24:49;;;;;;;2.53;1.45;;;;;;;;;;4968497;28;20054;-32
2021/07/10 22:27:14;;;;;;;2.30;1.35;;;;;;;;;;4968852;28;20019;-33
2021/07/10 22:29:40;;;;;;;2.42;1.23;;;;;;;;;;4969755;28;20069;-33
2021/07/10 22:32:07;;;;;;;3.45;1.60;;;;;;;;;;4968754;28;20151;-33
2021/07/10 22:34:32;;;;;;;2.50;1.33;;;;;;;;;;4969050;28;20026;-33
2021/07/10 22:36:58;;;;;;;3.30;1.33;;;;;;;;;;4967688;28;20033;-33
2021/07/10 22:39:23;;;;;;;2.60;1.20;;;;;;;;;;4968445;28;20015;-33
2021/07/10 22:41:49;;;;;;;2.53;1.27;;;;;;;;;;4969515;28;20027;-33
2021/07/10 22:44:14;;;;;;;2.97;1.55;;;;;;;;;;4968393;28;20027;-32
2021/07/10 22:46:41;;;;;;;2.03;1.20;;;;;;;;;;4969046;28;20545;-33
2021/07/10 22:49:07;;;;;;;2.92;1.50;;;;;;;;;;4968708;28;20081;-33
2021/07/10 22:51:32;;;;;;;3.22;1.40;;;;;;;;;;4968742;28;20039;-33
2021/07/10 22:53:57;;;;;;;3.50;1.55;;;;;;;;;;4980685;28;20698;-33
2021/07/10 22:56:23;;;;;;;2.25;1.33;;;;;;;;;;4988130;28;20478;-33
2021/07/10 22:58:48;;;;;;;2.75;1.38;;;;;;;;;;4987580;28;20026;-34
2021/07/10 23:01:13;;;;;;;3.17;1.35;;;;;;;;;;4987891;28;20053;-32
2021/07/10 23:03:39;;;;;;;4.57;1.25;;;;;;;;;;4988218;28;20026;-33
2021/07/10 23:06:04;;;;;;;3.08;1.20;;;;;;;;;;4988409;28;20029;-33
2021/07/10 23:08:30;;;;;;;2.38;1.30;;;;;;;;;;4976975;28;20497;-33
2021/07/10 23:10:56;;;;;;;2.42;1.20;;;;;;;;;;4969047;28;20034;-33
2021/07/10 23:13:21;;;;;;;3.08;1.33;;;;;;;;;;4982911;28;20034;-32